sensor_id;sensor_type;location;lat;lon;timestamp;P1;durP1;ratioP1;P2;durP2;ratioP2
64615;SDS011;51027;42.162;24.754;2022-09-25T00:01:21;15.70;;;5.63;;
64615;SDS011;51027;42.162;24.754;2022-09-25T00:03:47;15.68;;;5.82;;
64615;SDS011;51027;42.162;24.754;2022-09-25T00:06:14;15.40;;;6.78;;
64615;SDS011;51027;42.162;24.754;2022-09-25T00:08:44;16.25;;;6.07;;
64615;SDS011;51027;42.162;24.754;2022-09-25T00:11:14;16.60;;;6.03;;
64615;SDS011;51027;42.162;24.754;2022-09-25T00:13:41;15.85;;;5.78;;
64615;SDS011;51027;42.162;24.754;2022-09-25T00:16:09;16.50;;;6.15;;
64615;SDS011;51027;42.162;24.754;2022-09-25T00:18:36;15.27;;;5.50;;
64615;SDS011;51027;42.162;24.754;2022-09-25T00:21:20;17.05;;;5.80;;
64615;SDS011;51027;42.162;24.754;2022-09-25T00:23:46;16.55;;;5.40;;
64615;SDS011;51027;42.162;24.754;2022-09-25T00:26:12;15.30;;;6.10;;
64615;SDS011;51027;42.162;24.754;2022-09-25T00:28:40;14.90;;;6.25;;
64615;SDS011;51027;42.162;24.754;2022-09-25T00:31:07;15.18;;;6.15;;
64615;SDS011;51027;42.162;24.754;2022-09-25T00:33:34;16.17;;;5.70;;
64615;SDS011;51027;42.162;24.754;2022-09-25T00:36:03;16.20;;;6.35;;
64615;SDS011;51027;42.162;24.754;2022-09-25T00:38:31;16.05;;;6.32;;
64615;SDS011;51027;42.162;24.754;2022-09-25T00:40:57;14.50;;;5.72;;
64615;SDS011;51027;42.162;24.754;2022-09-25T00:46:13;17.67;;;5.95;;
64615;SDS011;51027;42.162;24.754;2022-09-25T00:48:47;18.38;;;6.93;;
64615;SDS011;51027;42.162;24.754;2022-09-25T00:51:15;15.75;;;6.60;;
64615;SDS011;51027;42.162;24.754;2022-09-25T00:53:45;17.67;;;7.07;;
64615;SDS011;51027;42.162;24.754;2022-09-25T00:56:11;16.83;;;6.95;;
64615;SDS011;51027;42.162;24.754;2022-09-25T00:58:38;14.90;;;6.03;;
64615;SDS011;51027;42.162;24.754;2022-09-25T01:01:05;16.95;;;6.15;;
64615;SDS011;51027;42.162;24.754;2022-09-25T01:03:32;15.43;;;5.90;;
64615;SDS011;51027;42.162;24.754;2022-09-25T01:05:59;17.05;;;6.45;;
64615;SDS011;51027;42.162;24.754;2022-09-25T01:08:26;14.70;;;6.05;;
64615;SDS011;51027;42.162;24.754;2022-09-25T01:10:53;14.95;;;5.88;;
64615;SDS011;51027;42.162;24.754;2022-09-25T01:13:19;15.77;;;6.10;;
64615;SDS011;51027;42.162;24.754;2022-09-25T01:21:12;16.13;;;6.35;;
64615;SDS011;51027;42.162;24.754;2022-09-25T01:32:06;20.80;;;8.25;;
64615;SDS011;51027;42.162;24.754;2022-09-25T01:34:55;18.80;;;7.53;;
64615;SDS011;51027;42.162;24.754;2022-09-25T01:40:07;17.45;;;7.15;;
64615;SDS011;51027;42.162;24.754;2022-09-25T01:42:39;17.08;;;7.10;;
64615;SDS011;51027;42.162;24.754;2022-09-25T01:45:15;19.10;;;7.60;;
64615;SDS011;51027;42.162;24.754;2022-09-25T01:47:46;17.52;;;7.50;;
64615;SDS011;51027;42.162;24.754;2022-09-25T01:50:23;16.92;;;6.78;;
64615;SDS011;51027;42.162;24.754;2022-09-25T01:53:00;17.80;;;8.13;;
64615;SDS011;51027;42.162;24.754;2022-09-25T01:55:32;20.63;;;7.60;;
64615;SDS011;51027;42.162;24.754;2022-09-25T01:58:21;18.92;;;7.75;;
64615;SDS011;51027;42.162;24.754;2022-09-25T02:00:53;16.63;;;6.75;;
64615;SDS011;51027;42.162;24.754;2022-09-25T02:03:24;19.13;;;7.30;;
64615;SDS011;51027;42.162;24.754;2022-09-25T02:05:56;20.08;;;7.93;;
64615;SDS011;51027;42.162;24.754;2022-09-25T02:08:37;19.75;;;7.47;;
64615;SDS011;51027;42.162;24.754;2022-09-25T02:11:08;18.95;;;8.02;;
64615;SDS011;51027;42.162;24.754;2022-09-25T02:13:40;17.85;;;7.63;;
64615;SDS011;51027;42.162;24.754;2022-09-25T02:16:14;17.55;;;6.97;;
64615;SDS011;51027;42.162;24.754;2022-09-25T02:18:44;16.63;;;7.00;;
64615;SDS011;51027;42.162;24.754;2022-09-25T02:27:11;19.08;;;7.53;;
64615;SDS011;51027;42.162;24.754;2022-09-25T02:29:37;18.35;;;6.80;;
64615;SDS011;51027;42.162;24.754;2022-09-25T02:32:12;17.15;;;7.18;;
64615;SDS011;51027;42.162;24.754;2022-09-25T02:34:41;18.63;;;7.15;;
64615;SDS011;51027;42.162;24.754;2022-09-25T02:37:13;17.48;;;7.20;;
64615;SDS011;51027;42.162;24.754;2022-09-25T02:39:39;17.98;;;6.75;;
64615;SDS011;51027;42.162;24.754;2022-09-25T02:50:24;15.88;;;6.35;;
64615;SDS011;51027;42.162;24.754;2022-09-25T02:53:14;15.32;;;6.57;;
64615;SDS011;51027;42.162;24.754;2022-09-25T02:55:48;16.98;;;7.20;;
64615;SDS011;51027;42.162;24.754;2022-09-25T02:58:20;17.30;;;6.97;;
64615;SDS011;51027;42.162;24.754;2022-09-25T03:00:49;17.83;;;8.10;;
64615;SDS011;51027;42.162;24.754;2022-09-25T03:03:17;17.13;;;7.30;;
64615;SDS011;51027;42.162;24.754;2022-09-25T03:05:45;18.33;;;7.20;;
64615;SDS011;51027;42.162;24.754;2022-09-25T03:08:13;17.38;;;7.47;;
64615;SDS011;51027;42.162;24.754;2022-09-25T03:10:57;16.80;;;7.60;;
64615;SDS011;51027;42.162;24.754;2022-09-25T03:13:24;18.10;;;7.38;;
64615;SDS011;51027;42.162;24.754;2022-09-25T03:15:57;18.35;;;7.07;;
64615;SDS011;51027;42.162;24.754;2022-09-25T03:20:52;15.43;;;6.47;;
64615;SDS011;51027;42.162;24.754;2022-09-25T03:23:17;19.33;;;6.30;;
64615;SDS011;51027;42.162;24.754;2022-09-25T03:25:43;15.95;;;6.43;;
64615;SDS011;51027;42.162;24.754;2022-09-25T03:28:09;17.08;;;6.97;;
64615;SDS011;51027;42.162;24.754;2022-09-25T03:30:38;15.80;;;6.82;;
64615;SDS011;51027;42.162;24.754;2022-09-25T03:33:08;17.63;;;7.15;;
64615;SDS011;51027;42.162;24.754;2022-09-25T03:38:00;17.17;;;7.15;;
64615;SDS011;51027;42.162;24.754;2022-09-25T03:40:26;18.48;;;7.10;;
64615;SDS011;51027;42.162;24.754;2022-09-25T03:42:51;16.95;;;7.15;;
64615;SDS011;51027;42.162;24.754;2022-09-25T03:45:17;17.20;;;6.72;;
64615;SDS011;51027;42.162;24.754;2022-09-25T03:47:42;17.42;;;6.45;;
64615;SDS011;51027;42.162;24.754;2022-09-25T03:50:07;16.52;;;6.75;;
64615;SDS011;51027;42.162;24.754;2022-09-25T03:52:33;16.52;;;7.00;;
64615;SDS011;51027;42.162;24.754;2022-09-25T03:54:59;18.88;;;6.55;;
64615;SDS011;51027;42.162;24.754;2022-09-25T03:57:24;20.00;;;7.30;;
64615;SDS011;51027;42.162;24.754;2022-09-25T03:59:50;16.33;;;6.47;;
64615;SDS011;51027;42.162;24.754;2022-09-25T04:02:16;17.98;;;7.20;;
64615;SDS011;51027;42.162;24.754;2022-09-25T04:04:41;20.23;;;7.88;;
64615;SDS011;51027;42.162;24.754;2022-09-25T04:07:10;17.52;;;8.07;;
64615;SDS011;51027;42.162;24.754;2022-09-25T04:09:35;17.90;;;7.05;;
64615;SDS011;51027;42.162;24.754;2022-09-25T04:12:01;18.23;;;7.43;;
64615;SDS011;51027;42.162;24.754;2022-09-25T04:14:27;18.55;;;7.18;;
64615;SDS011;51027;42.162;24.754;2022-09-25T04:16:52;17.85;;;7.10;;
64615;SDS011;51027;42.162;24.754;2022-09-25T04:19:18;19.25;;;7.45;;
64615;SDS011;51027;42.162;24.754;2022-09-25T04:21:43;19.08;;;7.47;;
64615;SDS011;51027;42.162;24.754;2022-09-25T04:24:09;18.63;;;7.20;;
64615;SDS011;51027;42.162;24.754;2022-09-25T04:26:52;17.35;;;7.03;;
64615;SDS011;51027;42.162;24.754;2022-09-25T04:29:18;17.13;;;7.47;;
64615;SDS011;51027;42.162;24.754;2022-09-25T04:31:45;17.85;;;6.90;;
64615;SDS011;51027;42.162;24.754;2022-09-25T04:34:30;18.60;;;7.20;;
64615;SDS011;51027;42.162;24.754;2022-09-25T04:36:56;17.13;;;7.82;;
64615;SDS011;51027;42.162;24.754;2022-09-25T04:39:21;17.48;;;6.95;;
64615;SDS011;51027;42.162;24.754;2022-09-25T04:41:47;17.55;;;7.68;;
64615;SDS011;51027;42.162;24.754;2022-09-25T04:44:12;20.77;;;8.98;;
64615;SDS011;51027;42.162;24.754;2022-09-25T04:46:38;22.00;;;9.80;;
64615;SDS011;51027;42.162;24.754;2022-09-25T04:49:03;19.70;;;9.25;;
64615;SDS011;51027;42.162;24.754;2022-09-25T04:51:28;18.70;;;9.65;;
64615;SDS011;51027;42.162;24.754;2022-09-25T04:53:54;19.85;;;8.80;;
64615;SDS011;51027;42.162;24.754;2022-09-25T04:56:20;17.10;;;7.57;;
64615;SDS011;51027;42.162;24.754;2022-09-25T04:58:46;17.67;;;7.25;;
64615;SDS011;51027;42.162;24.754;2022-09-25T05:01:13;18.27;;;7.57;;
64615;SDS011;51027;42.162;24.754;2022-09-25T05:03:40;18.48;;;7.10;;
64615;SDS011;51027;42.162;24.754;2022-09-25T05:06:05;35.00;;;14.38;;
64615;SDS011;51027;42.162;24.754;2022-09-25T05:08:31;15.82;;;6.32;;
64615;SDS011;51027;42.162;24.754;2022-09-25T05:10:56;17.95;;;7.40;;
64615;SDS011;51027;42.162;24.754;2022-09-25T05:13:22;17.02;;;6.55;;
64615;SDS011;51027;42.162;24.754;2022-09-25T05:15:47;16.63;;;6.50;;
64615;SDS011;51027;42.162;24.754;2022-09-25T05:18:17;16.17;;;6.45;;
64615;SDS011;51027;42.162;24.754;2022-09-25T05:20:44;17.02;;;6.43;;
64615;SDS011;51027;42.162;24.754;2022-09-25T05:23:10;16.45;;;6.95;;
64615;SDS011;51027;42.162;24.754;2022-09-25T05:25:36;16.50;;;6.28;;
64615;SDS011;51027;42.162;24.754;2022-09-25T05:28:02;15.82;;;6.68;;
64615;SDS011;51027;42.162;24.754;2022-09-25T05:30:29;19.13;;;6.07;;
64615;SDS011;51027;42.162;24.754;2022-09-25T05:32:56;17.73;;;6.57;;
64615;SDS011;51027;42.162;24.754;2022-09-25T05:35:22;15.80;;;5.90;;
64615;SDS011;51027;42.162;24.754;2022-09-25T05:37:48;16.98;;;6.57;;
64615;SDS011;51027;42.162;24.754;2022-09-25T05:40:14;16.75;;;6.35;;
64615;SDS011;51027;42.162;24.754;2022-09-25T05:42:41;17.55;;;7.05;;
64615;SDS011;51027;42.162;24.754;2022-09-25T05:45:11;16.23;;;5.85;;
64615;SDS011;51027;42.162;24.754;2022-09-25T05:47:37;14.00;;;5.20;;
64615;SDS011;51027;42.162;24.754;2022-09-25T05:50:03;15.30;;;5.65;;
64615;SDS011;51027;42.162;24.754;2022-09-25T05:52:29;16.20;;;6.20;;
64615;SDS011;51027;42.162;24.754;2022-09-25T05:54:55;15.43;;;6.13;;
64615;SDS011;51027;42.162;24.754;2022-09-25T05:57:21;16.58;;;6.40;;
64615;SDS011;51027;42.162;24.754;2022-09-25T05:59:47;15.80;;;6.30;;
64615;SDS011;51027;42.162;24.754;2022-09-25T06:02:13;22.17;;;6.75;;
64615;SDS011;51027;42.162;24.754;2022-09-25T06:04:39;16.77;;;6.30;;
64615;SDS011;51027;42.162;24.754;2022-09-25T06:07:05;16.27;;;6.15;;
64615;SDS011;51027;42.162;24.754;2022-09-25T06:09:30;14.63;;;5.75;;
64615;SDS011;51027;42.162;24.754;2022-09-25T06:11:56;13.77;;;5.13;;
64615;SDS011;51027;42.162;24.754;2022-09-25T06:14:21;14.27;;;5.65;;
64615;SDS011;51027;42.162;24.754;2022-09-25T06:16:47;16.73;;;6.18;;
64615;SDS011;51027;42.162;24.754;2022-09-25T06:19:15;16.80;;;6.32;;
64615;SDS011;51027;42.162;24.754;2022-09-25T06:21:41;14.98;;;4.82;;
64615;SDS011;51027;42.162;24.754;2022-09-25T06:24:08;14.43;;;5.30;;
64615;SDS011;51027;42.162;24.754;2022-09-25T06:26:34;15.93;;;5.97;;
64615;SDS011;51027;42.162;24.754;2022-09-25T06:29:00;14.82;;;5.70;;
64615;SDS011;51027;42.162;24.754;2022-09-25T06:31:27;15.48;;;6.47;;
64615;SDS011;51027;42.162;24.754;2022-09-25T06:33:52;15.20;;;5.97;;
64615;SDS011;51027;42.162;24.754;2022-09-25T06:36:18;16.40;;;5.38;;
64615;SDS011;51027;42.162;24.754;2022-09-25T06:38:43;14.50;;;5.47;;
64615;SDS011;51027;42.162;24.754;2022-09-25T06:41:08;15.55;;;6.18;;
64615;SDS011;51027;42.162;24.754;2022-09-25T06:43:34;14.85;;;5.82;;
64615;SDS011;51027;42.162;24.754;2022-09-25T06:46:00;15.23;;;5.63;;
64615;SDS011;51027;42.162;24.754;2022-09-25T06:48:27;14.20;;;6.10;;
64615;SDS011;51027;42.162;24.754;2022-09-25T06:50:54;16.38;;;5.95;;
64615;SDS011;51027;42.162;24.754;2022-09-25T06:53:22;17.25;;;6.57;;
64615;SDS011;51027;42.162;24.754;2022-09-25T06:55:49;17.23;;;5.93;;
64615;SDS011;51027;42.162;24.754;2022-09-25T06:58:16;13.95;;;5.32;;
64615;SDS011;51027;42.162;24.754;2022-09-25T07:00:44;15.80;;;5.80;;
64615;SDS011;51027;42.162;24.754;2022-09-25T07:03:11;14.75;;;5.28;;
64615;SDS011;51027;42.162;24.754;2022-09-25T07:05:55;14.52;;;5.60;;
64615;SDS011;51027;42.162;24.754;2022-09-25T07:08:24;14.80;;;4.90;;
64615;SDS011;51027;42.162;24.754;2022-09-25T07:10:50;14.80;;;5.53;;
64615;SDS011;51027;42.162;24.754;2022-09-25T07:13:17;14.18;;;5.40;;
64615;SDS011;51027;42.162;24.754;2022-09-25T07:15:56;15.50;;;5.93;;
64615;SDS011;51027;42.162;24.754;2022-09-25T07:18:23;15.93;;;6.15;;
64615;SDS011;51027;42.162;24.754;2022-09-25T07:20:50;16.30;;;6.10;;
64615;SDS011;51027;42.162;24.754;2022-09-25T07:23:17;19.15;;;6.78;;
64615;SDS011;51027;42.162;24.754;2022-09-25T07:25:45;19.52;;;6.72;;
64615;SDS011;51027;42.162;24.754;2022-09-25T07:28:11;15.73;;;6.45;;
64615;SDS011;51027;42.162;24.754;2022-09-25T07:30:39;17.10;;;5.97;;
64615;SDS011;51027;42.162;24.754;2022-09-25T07:33:05;14.38;;;5.70;;
64615;SDS011;51027;42.162;24.754;2022-09-25T07:35:30;15.00;;;5.65;;
64615;SDS011;51027;42.162;24.754;2022-09-25T07:37:58;13.98;;;5.20;;
64615;SDS011;51027;42.162;24.754;2022-09-25T07:40:23;14.43;;;5.65;;
64615;SDS011;51027;42.162;24.754;2022-09-25T07:42:51;16.15;;;6.07;;
64615;SDS011;51027;42.162;24.754;2022-09-25T07:45:16;16.27;;;6.00;;
64615;SDS011;51027;42.162;24.754;2022-09-25T07:47:42;14.38;;;5.25;;
64615;SDS011;51027;42.162;24.754;2022-09-25T07:50:07;15.10;;;5.18;;
64615;SDS011;51027;42.162;24.754;2022-09-25T07:52:33;13.98;;;5.45;;
64615;SDS011;51027;42.162;24.754;2022-09-25T07:54:59;14.75;;;5.53;;
64615;SDS011;51027;42.162;24.754;2022-09-25T07:57:24;14.95;;;5.22;;
64615;SDS011;51027;42.162;24.754;2022-09-25T07:59:51;15.70;;;5.35;;
64615;SDS011;51027;42.162;24.754;2022-09-25T08:02:16;15.30;;;5.65;;
64615;SDS011;51027;42.162;24.754;2022-09-25T08:04:42;13.35;;;5.15;;
64615;SDS011;51027;42.162;24.754;2022-09-25T08:07:07;15.48;;;5.85;;
64615;SDS011;51027;42.162;24.754;2022-09-25T08:09:33;17.08;;;5.80;;
64615;SDS011;51027;42.162;24.754;2022-09-25T08:11:58;18.25;;;6.25;;
64615;SDS011;51027;42.162;24.754;2022-09-25T08:14:23;14.77;;;5.07;;
64615;SDS011;51027;42.162;24.754;2022-09-25T08:16:49;13.23;;;4.80;;
64615;SDS011;51027;42.162;24.754;2022-09-25T08:19:16;16.17;;;5.40;;
64615;SDS011;51027;42.162;24.754;2022-09-25T08:21:42;16.48;;;6.22;;
64615;SDS011;51027;42.162;24.754;2022-09-25T08:24:08;12.90;;;5.13;;
64615;SDS011;51027;42.162;24.754;2022-09-25T08:26:34;13.15;;;5.25;;
64615;SDS011;51027;42.162;24.754;2022-09-25T08:29:01;13.77;;;6.05;;
64615;SDS011;51027;42.162;24.754;2022-09-25T08:31:27;13.75;;;5.35;;
64615;SDS011;51027;42.162;24.754;2022-09-25T08:33:53;13.55;;;5.22;;
64615;SDS011;51027;42.162;24.754;2022-09-25T08:36:18;13.48;;;4.53;;
64615;SDS011;51027;42.162;24.754;2022-09-25T08:38:45;16.00;;;5.50;;
64615;SDS011;51027;42.162;24.754;2022-09-25T08:41:16;13.25;;;4.60;;
64615;SDS011;51027;42.162;24.754;2022-09-25T08:46:39;13.70;;;5.15;;
64615;SDS011;51027;42.162;24.754;2022-09-25T08:49:29;12.32;;;4.70;;
64615;SDS011;51027;42.162;24.754;2022-09-25T08:52:02;13.07;;;4.47;;
64615;SDS011;51027;42.162;24.754;2022-09-25T08:54:33;11.95;;;4.47;;
64615;SDS011;51027;42.162;24.754;2022-09-25T08:57:02;12.25;;;4.40;;
64615;SDS011;51027;42.162;24.754;2022-09-25T08:59:47;11.88;;;4.30;;
64615;SDS011;51027;42.162;24.754;2022-09-25T09:02:18;14.85;;;5.32;;
64615;SDS011;51027;42.162;24.754;2022-09-25T09:04:47;12.00;;;4.25;;
64615;SDS011;51027;42.162;24.754;2022-09-25T09:20:50;12.77;;;5.38;;
64615;SDS011;51027;42.162;24.754;2022-09-25T09:23:17;11.55;;;4.30;;
64615;SDS011;51027;42.162;24.754;2022-09-25T09:25:48;11.98;;;4.20;;
64615;SDS011;51027;42.162;24.754;2022-09-25T09:31:29;15.63;;;4.88;;
64615;SDS011;51027;42.162;24.754;2022-09-25T09:37:34;12.00;;;4.75;;
64615;SDS011;51027;42.162;24.754;2022-09-25T09:45:43;13.02;;;4.95;;
64615;SDS011;51027;42.162;24.754;2022-09-25T09:48:27;13.13;;;5.10;;
64615;SDS011;51027;42.162;24.754;2022-09-25T09:51:08;13.43;;;5.72;;
64615;SDS011;51027;42.162;24.754;2022-09-25T09:53:39;15.70;;;6.43;;
64615;SDS011;51027;42.162;24.754;2022-09-25T09:56:13;16.00;;;4.95;;
64615;SDS011;51027;42.162;24.754;2022-09-25T09:58:47;12.82;;;4.80;;
64615;SDS011;51027;42.162;24.754;2022-09-25T10:01:16;11.27;;;4.57;;
64615;SDS011;51027;42.162;24.754;2022-09-25T10:03:44;16.10;;;5.75;;
64615;SDS011;51027;42.162;24.754;2022-09-25T10:06:13;14.98;;;5.20;;
64615;SDS011;51027;42.162;24.754;2022-09-25T10:08:41;14.63;;;5.35;;
64615;SDS011;51027;42.162;24.754;2022-09-25T10:11:14;16.77;;;6.75;;
64615;SDS011;51027;42.162;24.754;2022-09-25T10:13:50;16.67;;;5.88;;
64615;SDS011;51027;42.162;24.754;2022-09-25T10:16:18;12.50;;;4.63;;
64615;SDS011;51027;42.162;24.754;2022-09-25T10:19:21;13.95;;;5.07;;
64615;SDS011;51027;42.162;24.754;2022-09-25T10:21:52;12.98;;;5.00;;
64615;SDS011;51027;42.162;24.754;2022-09-25T10:29:44;14.82;;;5.15;;
64615;SDS011;51027;42.162;24.754;2022-09-25T10:32:10;13.63;;;4.95;;
64615;SDS011;51027;42.162;24.754;2022-09-25T10:34:35;10.93;;;4.00;;
64615;SDS011;51027;42.162;24.754;2022-09-25T10:37:14;13.87;;;4.87;;
64615;SDS011;51027;42.162;24.754;2022-09-25T10:39:44;11.55;;;4.43;;
64615;SDS011;51027;42.162;24.754;2022-09-25T10:42:30;12.32;;;4.75;;
64615;SDS011;51027;42.162;24.754;2022-09-25T10:45:26;11.88;;;4.60;;
64615;SDS011;51027;42.162;24.754;2022-09-25T10:51:09;13.00;;;4.53;;
64615;SDS011;51027;42.162;24.754;2022-09-25T10:53:35;12.55;;;4.80;;
64615;SDS011;51027;42.162;24.754;2022-09-25T10:56:09;11.70;;;4.13;;
64615;SDS011;51027;42.162;24.754;2022-09-25T11:01:09;11.50;;;4.30;;
64615;SDS011;51027;42.162;24.754;2022-09-25T11:03:58;10.23;;;3.97;;
64615;SDS011;51027;42.162;24.754;2022-09-25T11:11:22;12.57;;;4.43;;
64615;SDS011;51027;42.162;24.754;2022-09-25T11:13:52;12.02;;;4.50;;
64615;SDS011;51027;42.162;24.754;2022-09-25T11:19:30;11.75;;;4.65;;
64615;SDS011;51027;42.162;24.754;2022-09-25T11:27:21;17.20;;;6.28;;
64615;SDS011;51027;42.162;24.754;2022-09-25T11:29:59;12.80;;;4.18;;
64615;SDS011;51027;42.162;24.754;2022-09-25T11:32:57;9.57;;;4.00;;
64615;SDS011;51027;42.162;24.754;2022-09-25T11:49:27;11.98;;;4.60;;
64615;SDS011;51027;42.162;24.754;2022-09-25T12:02:50;11.90;;;4.38;;
64615;SDS011;51027;42.162;24.754;2022-09-25T12:05:44;14.40;;;4.68;;
64615;SDS011;51027;42.162;24.754;2022-09-25T12:26:50;10.68;;;4.43;;
64615;SDS011;51027;42.162;24.754;2022-09-25T12:40:50;12.13;;;4.28;;
64615;SDS011;51027;42.162;24.754;2022-09-25T12:43:21;12.15;;;4.70;;
64615;SDS011;51027;42.162;24.754;2022-09-25T12:57:39;11.98;;;4.63;;
64615;SDS011;51027;42.162;24.754;2022-09-25T13:02:25;10.82;;;4.30;;
64615;SDS011;51027;42.162;24.754;2022-09-25T13:11:04;11.65;;;4.45;;
64615;SDS011;51027;42.162;24.754;2022-09-25T13:13:30;12.85;;;4.93;;
64615;SDS011;51027;42.162;24.754;2022-09-25T13:16:01;11.93;;;4.28;;
64615;SDS011;51027;42.162;24.754;2022-09-25T13:18:28;11.48;;;4.35;;
64615;SDS011;51027;42.162;24.754;2022-09-25T13:23:48;11.70;;;4.40;;
64615;SDS011;51027;42.162;24.754;2022-09-25T13:26:20;11.70;;;4.50;;
64615;SDS011;51027;42.162;24.754;2022-09-25T13:28:56;11.65;;;4.38;;
64615;SDS011;51027;42.162;24.754;2022-09-25T13:31:29;16.67;;;4.75;;
64615;SDS011;51027;42.162;24.754;2022-09-25T13:34:11;12.13;;;4.72;;
64615;SDS011;51027;42.162;24.754;2022-09-25T13:36:40;15.73;;;6.60;;
64615;SDS011;51027;42.162;24.754;2022-09-25T13:42:30;14.70;;;6.38;;
64615;SDS011;51027;42.162;24.754;2022-09-25T13:47:58;14.32;;;5.93;;
64615;SDS011;51027;42.162;24.754;2022-09-25T13:50:36;13.30;;;4.75;;
64615;SDS011;51027;42.162;24.754;2022-09-25T13:53:11;11.52;;;4.53;;
64615;SDS011;51027;42.162;24.754;2022-09-25T13:58:15;13.15;;;4.68;;
64615;SDS011;51027;42.162;24.754;2022-09-25T14:03:39;14.05;;;4.90;;
64615;SDS011;51027;42.162;24.754;2022-09-25T14:08:48;11.23;;;4.65;;
64615;SDS011;51027;42.162;24.754;2022-09-25T14:11:15;11.68;;;4.25;;
64615;SDS011;51027;42.162;24.754;2022-09-25T14:13:44;14.25;;;5.03;;
64615;SDS011;51027;42.162;24.754;2022-09-25T14:16:32;12.43;;;4.72;;
64615;SDS011;51027;42.162;24.754;2022-09-25T14:19:03;11.80;;;4.72;;
64615;SDS011;51027;42.162;24.754;2022-09-25T14:21:29;12.73;;;4.95;;
64615;SDS011;51027;42.162;24.754;2022-09-25T14:24:11;13.27;;;4.50;;
64615;SDS011;51027;42.162;24.754;2022-09-25T14:26:48;12.90;;;5.30;;
64615;SDS011;51027;42.162;24.754;2022-09-25T14:29:25;12.00;;;4.85;;
64615;SDS011;51027;42.162;24.754;2022-09-25T14:31:58;13.43;;;5.05;;
64615;SDS011;51027;42.162;24.754;2022-09-25T14:34:34;12.45;;;4.97;;
64615;SDS011;51027;42.162;24.754;2022-09-25T14:45:36;13.40;;;5.00;;
64615;SDS011;51027;42.162;24.754;2022-09-25T14:48:14;13.68;;;4.78;;
64615;SDS011;51027;42.162;24.754;2022-09-25T14:50:44;13.95;;;5.60;;
64615;SDS011;51027;42.162;24.754;2022-09-25T14:53:16;16.25;;;5.35;;
64615;SDS011;51027;42.162;24.754;2022-09-25T14:55:49;11.60;;;4.70;;
64615;SDS011;51027;42.162;24.754;2022-09-25T14:58:18;16.25;;;5.68;;
64615;SDS011;51027;42.162;24.754;2022-09-25T15:00:48;12.70;;;5.15;;
64615;SDS011;51027;42.162;24.754;2022-09-25T15:03:17;11.52;;;4.57;;
64615;SDS011;51027;42.162;24.754;2022-09-25T15:05:50;12.63;;;4.43;;
64615;SDS011;51027;42.162;24.754;2022-09-25T15:08:19;11.77;;;4.53;;
64615;SDS011;51027;42.162;24.754;2022-09-25T15:10:46;13.35;;;4.80;;
64615;SDS011;51027;42.162;24.754;2022-09-25T15:13:16;11.35;;;4.50;;
64615;SDS011;51027;42.162;24.754;2022-09-25T15:15:51;13.23;;;4.97;;
64615;SDS011;51027;42.162;24.754;2022-09-25T15:18:40;15.13;;;5.47;;
64615;SDS011;51027;42.162;24.754;2022-09-25T15:21:07;15.95;;;4.95;;
64615;SDS011;51027;42.162;24.754;2022-09-25T15:23:38;12.50;;;5.00;;
64615;SDS011;51027;42.162;24.754;2022-09-25T15:26:04;13.95;;;5.30;;
64615;SDS011;51027;42.162;24.754;2022-09-25T15:28:30;14.82;;;5.63;;
64615;SDS011;51027;42.162;24.754;2022-09-25T15:31:04;16.02;;;5.80;;
64615;SDS011;51027;42.162;24.754;2022-09-25T15:33:31;13.98;;;5.68;;
64615;SDS011;51027;42.162;24.754;2022-09-25T15:35:59;16.90;;;6.00;;
64615;SDS011;51027;42.162;24.754;2022-09-25T15:38:35;17.95;;;5.97;;
64615;SDS011;51027;42.162;24.754;2022-09-25T15:41:01;16.05;;;6.07;;
64615;SDS011;51027;42.162;24.754;2022-09-25T15:43:30;15.43;;;5.72;;
64615;SDS011;51027;42.162;24.754;2022-09-25T15:48:31;13.20;;;5.22;;
64615;SDS011;51027;42.162;24.754;2022-09-25T15:50:59;15.25;;;5.88;;
64615;SDS011;51027;42.162;24.754;2022-09-25T15:53:28;15.98;;;5.72;;
64615;SDS011;51027;42.162;24.754;2022-09-25T16:02:37;15.45;;;6.18;;
64615;SDS011;51027;42.162;24.754;2022-09-25T16:39:27;17.63;;;7.65;;
64615;SDS011;51027;42.162;24.754;2022-09-25T16:42:44;20.17;;;9.48;;
64615;SDS011;51027;42.162;24.754;2022-09-25T18:37:29;19.17;;;6.70;;
64615;SDS011;51027;42.162;24.754;2022-09-25T18:54:14;17.27;;;7.22;;
64615;SDS011;51027;42.162;24.754;2022-09-25T18:56:45;18.15;;;7.13;;
64615;SDS011;51027;42.162;24.754;2022-09-25T18:59:14;19.10;;;8.20;;
64615;SDS011;51027;42.162;24.754;2022-09-25T19:01:40;19.27;;;9.18;;
64615;SDS011;51027;42.162;24.754;2022-09-25T19:04:13;21.07;;;10.17;;
64615;SDS011;51027;42.162;24.754;2022-09-25T19:06:50;20.40;;;9.55;;
64615;SDS011;51027;42.162;24.754;2022-09-25T19:09:22;22.88;;;10.65;;
64615;SDS011;51027;42.162;24.754;2022-09-25T19:12:17;22.88;;;10.57;;
64615;SDS011;51027;42.162;24.754;2022-09-25T19:18:18;23.70;;;11.68;;
64615;SDS011;51027;42.162;24.754;2022-09-25T19:23:26;21.53;;;10.40;;
64615;SDS011;51027;42.162;24.754;2022-09-25T19:32:10;20.27;;;8.82;;
64615;SDS011;51027;42.162;24.754;2022-09-25T19:45:52;19.85;;;8.52;;
64615;SDS011;51027;42.162;24.754;2022-09-25T19:52:19;22.45;;;10.30;;
64615;SDS011;51027;42.162;24.754;2022-09-25T20:24:57;19.27;;;7.95;;
64615;SDS011;51027;42.162;24.754;2022-09-25T20:35:15;21.08;;;8.10;;
64615;SDS011;51027;42.162;24.754;2022-09-25T20:38:37;17.15;;;7.70;;
64615;SDS011;51027;42.162;24.754;2022-09-25T20:54:00;17.23;;;6.63;;
64615;SDS011;51027;42.162;24.754;2022-09-25T21:46:35;15.85;;;6.57;;
64615;SDS011;51027;42.162;24.754;2022-09-25T21:56:08;17.77;;;6.85;;
64615;SDS011;51027;42.162;24.754;2022-09-25T22:58:36;16.58;;;6.45;;
